sensor_id;sensor_type;location;lat;lon;timestamp;temperature;humidity
3478;DHT22;37937;61.490;23.506;2023-05-29T00:01:35;6.00;99.90
3478;DHT22;37937;61.490;23.506;2023-05-29T00:04:03;6.10;99.90
3478;DHT22;37937;61.490;23.506;2023-05-29T00:06:29;6.10;99.90
3478;DHT22;37937;61.490;23.506;2023-05-29T00:08:55;6.00;99.90
3478;DHT22;37937;61.490;23.506;2023-05-29T00:11:21;6.00;99.90
3478;DHT22;37937;61.490;23.506;2023-05-29T00:13:48;6.00;99.90
3478;DHT22;37937;61.490;23.506;2023-05-29T00:16:14;6.00;99.90
3478;DHT22;37937;61.490;23.506;2023-05-29T00:18:39;6.00;99.90
3478;DHT22;37937;61.490;23.506;2023-05-29T00:21:11;6.00;99.90
3478;DHT22;37937;61.490;23.506;2023-05-29T00:23:36;6.00;99.90
3478;DHT22;37937;61.490;23.506;2023-05-29T00:26:02;5.90;99.90
3478;DHT22;37937;61.490;23.506;2023-05-29T00:28:28;5.80;99.90
3478;DHT22;37937;61.490;23.506;2023-05-29T00:30:54;5.80;99.90
3478;DHT22;37937;61.490;23.506;2023-05-29T00:33:19;5.80;99.90
3478;DHT22;37937;61.490;23.506;2023-05-29T00:35:45;5.70;99.90
3478;DHT22;37937;61.490;23.506;2023-05-29T00:38:11;5.80;99.90
3478;DHT22;37937;61.490;23.506;2023-05-29T00:40:39;5.70;99.90
3478;DHT22;37937;61.490;23.506;2023-05-29T00:43:05;5.70;99.90
3478;DHT22;37937;61.490;23.506;2023-05-29T00:45:54;5.70;99.90
3478;DHT22;37937;61.490;23.506;2023-05-29T00:48:20;5.70;99.90
3478;DHT22;37937;61.490;23.506;2023-05-29T00:50:46;5.70;99.90
3478;DHT22;37937;61.490;23.506;2023-05-29T00:53:12;5.60;99.90
3478;DHT22;37937;61.490;23.506;2023-05-29T00:55:38;5.60;99.90
3478;DHT22;37937;61.490;23.506;2023-05-29T00:58:04;5.50;99.90
3478;DHT22;37937;61.490;23.506;2023-05-29T01:00:30;5.50;99.90
3478;DHT22;37937;61.490;23.506;2023-05-29T01:02:58;5.40;99.90
3478;DHT22;37937;61.490;23.506;2023-05-29T01:05:24;5.30;99.90
3478;DHT22;37937;61.490;23.506;2023-05-29T01:07:50;5.30;99.90
3478;DHT22;37937;61.490;23.506;2023-05-29T01:10:16;5.30;99.90
3478;DHT22;37937;61.490;23.506;2023-05-29T01:12:44;5.30;99.90
3478;DHT22;37937;61.490;23.506;2023-05-29T01:15:28;5.30;99.90
3478;DHT22;37937;61.490;23.506;2023-05-29T01:23:06;5.20;99.90
3478;DHT22;37937;61.490;23.506;2023-05-29T01:26:11;5.30;99.90
3478;DHT22;37937;61.490;23.506;2023-05-29T01:28:29;5.20;99.90
3478;DHT22;37937;61.490;23.506;2023-05-29T01:30:57;5.30;99.90
3478;DHT22;37937;61.490;23.506;2023-05-29T01:33:24;5.20;99.90
3478;DHT22;37937;61.490;23.506;2023-05-29T01:35:51;5.10;99.90
3478;DHT22;37937;61.490;23.506;2023-05-29T01:38:17;5.10;99.90
3478;DHT22;37937;61.490;23.506;2023-05-29T01:40:42;5.10;99.90
3478;DHT22;37937;61.490;23.506;2023-05-29T01:43:08;5.10;99.90
3478;DHT22;37937;61.490;23.506;2023-05-29T01:45:35;5.10;99.90
3478;DHT22;37937;61.490;23.506;2023-05-29T01:48:01;5.20;99.90
3478;DHT22;37937;61.490;23.506;2023-05-29T01:50:27;5.10;99.90
3478;DHT22;37937;61.490;23.506;2023-05-29T01:52:53;5.10;99.90
3478;DHT22;37937;61.490;23.506;2023-05-29T01:55:19;5.00;99.90
3478;DHT22;37937;61.490;23.506;2023-05-29T01:57:45;5.00;99.90
3478;DHT22;37937;61.490;23.506;2023-05-29T02:00:11;5.10;99.90
3478;DHT22;37937;61.490;23.506;2023-05-29T02:02:37;5.10;99.90
3478;DHT22;37937;61.490;23.506;2023-05-29T02:05:04;5.20;99.90
3478;DHT22;37937;61.490;23.506;2023-05-29T02:07:30;5.20;99.90
3478;DHT22;37937;61.490;23.506;2023-05-29T02:09:56;5.10;99.90
3478;DHT22;37937;61.490;23.506;2023-05-29T02:12:22;5.20;99.90
3478;DHT22;37937;61.490;23.506;2023-05-29T02:14:47;5.20;99.90
3478;DHT22;37937;61.490;23.506;2023-05-29T02:17:13;5.20;99.90
3478;DHT22;37937;61.490;23.506;2023-05-29T02:19:40;5.20;99.90
3478;DHT22;37937;61.490;23.506;2023-05-29T02:22:06;5.10;99.90
3478;DHT22;37937;61.490;23.506;2023-05-29T02:24:32;5.20;99.90
3478;DHT22;37937;61.490;23.506;2023-05-29T02:26:58;5.20;99.90
3478;DHT22;37937;61.490;23.506;2023-05-29T02:29:23;5.20;99.90
3478;DHT22;37937;61.490;23.506;2023-05-29T02:31:49;5.10;99.90
3478;DHT22;37937;61.490;23.506;2023-05-29T02:34:15;5.20;99.90
3478;DHT22;37937;61.490;23.506;2023-05-29T02:36:41;5.10;99.90
3478;DHT22;37937;61.490;23.506;2023-05-29T02:39:07;5.10;99.90
3478;DHT22;37937;61.490;23.506;2023-05-29T02:41:33;5.10;99.90
3478;DHT22;37937;61.490;23.506;2023-05-29T02:44:00;5.00;99.90
3478;DHT22;37937;61.490;23.506;2023-05-29T02:46:30;5.10;99.90
3478;DHT22;37937;61.490;23.506;2023-05-29T02:49:00;5.10;99.90
3478;DHT22;37937;61.490;23.506;2023-05-29T02:51:26;5.00;99.90
3478;DHT22;37937;61.490;23.506;2023-05-29T02:53:53;5.00;99.90
3478;DHT22;37937;61.490;23.506;2023-05-29T02:56:18;5.00;99.90
3478;DHT22;37937;61.490;23.506;2023-05-29T02:58:52;5.10;99.90
3478;DHT22;37937;61.490;23.506;2023-05-29T03:01:18;5.10;99.90
3478;DHT22;37937;61.490;23.506;2023-05-29T03:03:43;5.10;99.90
3478;DHT22;37937;61.490;23.506;2023-05-29T03:06:09;5.10;99.90
3478;DHT22;37937;61.490;23.506;2023-05-29T03:08:35;5.10;99.90
3478;DHT22;37937;61.490;23.506;2023-05-29T03:11:07;5.20;99.90
3478;DHT22;37937;61.490;23.506;2023-05-29T03:13:34;5.20;99.90
3478;DHT22;37937;61.490;23.506;2023-05-29T03:16:01;5.30;99.90
3478;DHT22;37937;61.490;23.506;2023-05-29T03:18:27;5.40;99.90
3478;DHT22;37937;61.490;23.506;2023-05-29T03:20:53;5.70;99.90
3478;DHT22;37937;61.490;23.506;2023-05-29T03:23:19;5.90;99.90
3478;DHT22;37937;61.490;23.506;2023-05-29T03:25:45;6.00;99.90
3478;DHT22;37937;61.490;23.506;2023-05-29T03:28:10;6.20;99.90
3478;DHT22;37937;61.490;23.506;2023-05-29T03:30:36;6.40;99.90
3478;DHT22;37937;61.490;23.506;2023-05-29T03:33:02;6.50;99.90
3478;DHT22;37937;61.490;23.506;2023-05-29T03:35:29;6.50;99.90
3478;DHT22;37937;61.490;23.506;2023-05-29T03:37:55;6.50;99.90
3478;DHT22;37937;61.490;23.506;2023-05-29T03:40:20;6.50;99.90
3478;DHT22;37937;61.490;23.506;2023-05-29T03:42:46;6.50;99.90
3478;DHT22;37937;61.490;23.506;2023-05-29T03:45:12;6.60;99.90
3478;DHT22;37937;61.490;23.506;2023-05-29T03:47:37;6.60;99.90
3478;DHT22;37937;61.490;23.506;2023-05-29T03:50:03;6.60;99.90
3478;DHT22;37937;61.490;23.506;2023-05-29T03:52:29;6.60;99.90
3478;DHT22;37937;61.490;23.506;2023-05-29T03:54:54;6.70;99.90
3478;DHT22;37937;61.490;23.506;2023-05-29T03:57:20;6.80;99.90
3478;DHT22;37937;61.490;23.506;2023-05-29T03:59:46;6.90;99.90
3478;DHT22;37937;61.490;23.506;2023-05-29T04:02:11;7.00;99.90
3478;DHT22;37937;61.490;23.506;2023-05-29T04:04:37;7.20;99.90
3478;DHT22;37937;61.490;23.506;2023-05-29T04:07:05;7.50;99.90
3478;DHT22;37937;61.490;23.506;2023-05-29T04:09:32;8.00;99.90
3478;DHT22;37937;61.490;23.506;2023-05-29T04:11:58;8.50;99.90
3478;DHT22;37937;61.490;23.506;2023-05-29T04:14:25;9.00;99.90
3478;DHT22;37937;61.490;23.506;2023-05-29T04:16:50;9.60;99.90
3478;DHT22;37937;61.490;23.506;2023-05-29T04:19:16;10.00;99.90
3478;DHT22;37937;61.490;23.506;2023-05-29T04:21:41;10.70;99.90
3478;DHT22;37937;61.490;23.506;2023-05-29T04:24:07;11.20;99.90
3478;DHT22;37937;61.490;23.506;2023-05-29T04:26:33;11.60;99.90
3478;DHT22;37937;61.490;23.506;2023-05-29T04:28:58;11.60;99.90
3478;DHT22;37937;61.490;23.506;2023-05-29T04:31:24;11.70;96.80
3478;DHT22;37937;61.490;23.506;2023-05-29T04:33:51;11.80;93.70
3478;DHT22;37937;61.490;23.506;2023-05-29T04:36:21;12.30;90.80
3478;DHT22;37937;61.490;23.506;2023-05-29T04:38:48;12.80;82.10
3478;DHT22;37937;61.490;23.506;2023-05-29T04:41:16;13.00;76.00
3478;DHT22;37937;61.490;23.506;2023-05-29T04:43:42;13.20;71.00
3478;DHT22;37937;61.490;23.506;2023-05-29T04:46:07;13.10;53.20
3478;DHT22;37937;61.490;23.506;2023-05-29T04:48:40;13.00;51.10
3478;DHT22;37937;61.490;23.506;2023-05-29T04:51:06;12.80;49.20
3478;DHT22;37937;61.490;23.506;2023-05-29T04:53:32;13.10;59.80
3478;DHT22;37937;61.490;23.506;2023-05-29T04:55:57;12.90;54.80
3478;DHT22;37937;61.490;23.506;2023-05-29T04:58:26;13.60;40.10
3478;DHT22;37937;61.490;23.506;2023-05-29T05:00:52;13.50;48.70
3478;DHT22;37937;61.490;23.506;2023-05-29T05:03:17;13.80;44.00
3478;DHT22;37937;61.490;23.506;2023-05-29T05:05:43;14.00;44.00
3478;DHT22;37937;61.490;23.506;2023-05-29T05:08:09;14.40;35.70
3478;DHT22;37937;61.490;23.506;2023-05-29T05:10:35;14.20;28.00
3478;DHT22;37937;61.490;23.506;2023-05-29T05:13:00;14.80;39.00
3478;DHT22;37937;61.490;23.506;2023-05-29T05:15:28;14.70;38.00
3478;DHT22;37937;61.490;23.506;2023-05-29T05:17:53;14.10;23.30
3478;DHT22;37937;61.490;23.506;2023-05-29T05:20:19;14.40;24.20
3478;DHT22;37937;61.490;23.506;2023-05-29T05:22:45;15.10;30.30
3478;DHT22;37937;61.490;23.506;2023-05-29T05:25:10;14.50;25.60
3478;DHT22;37937;61.490;23.506;2023-05-29T05:27:36;14.60;18.60
3478;DHT22;37937;61.490;23.506;2023-05-29T05:30:03;15.10;17.60
3478;DHT22;37937;61.490;23.506;2023-05-29T05:32:28;15.30;23.70
3478;DHT22;37937;61.490;23.506;2023-05-29T05:34:54;14.90;16.50
3478;DHT22;37937;61.490;23.506;2023-05-29T05:37:20;14.10;23.20
3478;DHT22;37937;61.490;23.506;2023-05-29T05:39:49;14.40;19.60
3478;DHT22;37937;61.490;23.506;2023-05-29T05:42:15;14.10;18.40
3478;DHT22;37937;61.490;23.506;2023-05-29T05:44:41;14.40;21.50
3478;DHT22;37937;61.490;23.506;2023-05-29T05:47:06;14.60;26.30
3478;DHT22;37937;61.490;23.506;2023-05-29T05:49:33;15.30;22.80
3478;DHT22;37937;61.490;23.506;2023-05-29T05:51:58;15.30;17.60
3478;DHT22;37937;61.490;23.506;2023-05-29T05:54:24;15.70;19.30
3478;DHT22;37937;61.490;23.506;2023-05-29T05:56:50;15.80;15.20
3478;DHT22;37937;61.490;23.506;2023-05-29T05:59:16;15.30;13.60
3478;DHT22;37937;61.490;23.506;2023-05-29T06:01:41;15.40;15.30
3478;DHT22;37937;61.490;23.506;2023-05-29T06:04:07;15.70;14.90
3478;DHT22;37937;61.490;23.506;2023-05-29T06:06:34;15.70;12.90
3478;DHT22;37937;61.490;23.506;2023-05-29T06:08:59;14.50;13.00
3478;DHT22;37937;61.490;23.506;2023-05-29T06:11:25;15.00;17.60
3478;DHT22;37937;61.490;23.506;2023-05-29T06:13:51;15.40;14.90
3478;DHT22;37937;61.490;23.506;2023-05-29T06:16:18;15.70;13.90
3478;DHT22;37937;61.490;23.506;2023-05-29T06:18:43;15.10;11.20
3478;DHT22;37937;61.490;23.506;2023-05-29T06:21:09;15.80;12.60
3478;DHT22;37937;61.490;23.506;2023-05-29T06:23:35;16.00;14.00
3478;DHT22;37937;61.490;23.506;2023-05-29T06:26:02;15.70;7.60
3478;DHT22;37937;61.490;23.506;2023-05-29T06:28:28;15.10;6.70
3478;DHT22;37937;61.490;23.506;2023-05-29T06:30:54;15.00;6.80
3478;DHT22;37937;61.490;23.506;2023-05-29T06:33:20;15.70;9.50
3478;DHT22;37937;61.490;23.506;2023-05-29T06:35:46;16.30;6.70
3478;DHT22;37937;61.490;23.506;2023-05-29T06:38:13;16.30;7.50
3478;DHT22;37937;61.490;23.506;2023-05-29T06:40:38;15.20;7.00
3478;DHT22;37937;61.490;23.506;2023-05-29T06:43:04;14.70;7.90
3478;DHT22;37937;61.490;23.506;2023-05-29T06:45:30;14.10;6.60
3478;DHT22;37937;61.490;23.506;2023-05-29T06:47:55;14.80;9.00
3478;DHT22;37937;61.490;23.506;2023-05-29T06:50:22;14.70;6.60
3478;DHT22;37937;61.490;23.506;2023-05-29T06:52:47;14.90;6.60
3478;DHT22;37937;61.490;23.506;2023-05-29T06:55:13;14.80;5.70
3478;DHT22;37937;61.490;23.506;2023-05-29T06:57:39;15.20;8.40
3478;DHT22;37937;61.490;23.506;2023-05-29T07:00:05;15.00;8.20
3478;DHT22;37937;61.490;23.506;2023-05-29T07:02:31;15.50;5.40
3478;DHT22;37937;61.490;23.506;2023-05-29T07:04:57;15.00;2.20
3478;DHT22;37937;61.490;23.506;2023-05-29T07:07:23;14.80;2.20
3478;DHT22;37937;61.490;23.506;2023-05-29T07:09:48;14.60;5.60
3478;DHT22;37937;61.490;23.506;2023-05-29T07:12:14;14.10;3.30
3478;DHT22;37937;61.490;23.506;2023-05-29T07:14:39;13.50;7.20
3478;DHT22;37937;61.490;23.506;2023-05-29T07:17:05;13.50;5.40
3478;DHT22;37937;61.490;23.506;2023-05-29T07:19:31;14.10;5.90
3478;DHT22;37937;61.490;23.506;2023-05-29T07:21:59;14.60;6.60
3478;DHT22;37937;61.490;23.506;2023-05-29T07:24:24;14.80;6.50
3478;DHT22;37937;61.490;23.506;2023-05-29T07:26:50;14.80;1.00
3478;DHT22;37937;61.490;23.506;2023-05-29T07:29:16;14.10;3.80
3478;DHT22;37937;61.490;23.506;2023-05-29T07:31:43;13.90;2.50
3478;DHT22;37937;61.490;23.506;2023-05-29T07:34:11;14.60;2.60
3478;DHT22;37937;61.490;23.506;2023-05-29T07:36:37;15.00;7.30
3478;DHT22;37937;61.490;23.506;2023-05-29T07:39:21;15.60;3.50
3478;DHT22;37937;61.490;23.506;2023-05-29T07:41:46;15.50;2.50
3478;DHT22;37937;61.490;23.506;2023-05-29T07:44:12;15.30;1.80
3478;DHT22;37937;61.490;23.506;2023-05-29T07:46:38;15.60;1.00
3478;DHT22;37937;61.490;23.506;2023-05-29T07:49:03;15.60;1.00
3478;DHT22;37937;61.490;23.506;2023-05-29T07:51:29;16.10;1.00
3478;DHT22;37937;61.490;23.506;2023-05-29T07:53:54;15.20;4.80
3478;DHT22;37937;61.490;23.506;2023-05-29T07:56:20;15.90;1.90
3478;DHT22;37937;61.490;23.506;2023-05-29T07:58:46;15.50;1.00
3478;DHT22;37937;61.490;23.506;2023-05-29T08:01:12;15.30;1.00
3478;DHT22;37937;61.490;23.506;2023-05-29T08:03:40;15.30;1.00
3478;DHT22;37937;61.490;23.506;2023-05-29T08:06:06;15.90;1.00
3478;DHT22;37937;61.490;23.506;2023-05-29T08:08:32;16.20;1.00
3478;DHT22;37937;61.490;23.506;2023-05-29T08:10:57;15.90;1.00
3478;DHT22;37937;61.490;23.506;2023-05-29T08:13:23;15.80;1.00
3478;DHT22;37937;61.490;23.506;2023-05-29T08:15:49;16.50;1.00
3478;DHT22;37937;61.490;23.506;2023-05-29T08:18:14;16.60;1.00
3478;DHT22;37937;61.490;23.506;2023-05-29T08:20:40;16.10;1.00
3478;DHT22;37937;61.490;23.506;2023-05-29T08:23:05;16.20;1.00
3478;DHT22;37937;61.490;23.506;2023-05-29T08:25:31;16.10;1.00
3478;DHT22;37937;61.490;23.506;2023-05-29T08:27:57;16.30;1.00
3478;DHT22;37937;61.490;23.506;2023-05-29T08:30:22;16.20;1.00
3478;DHT22;37937;61.490;23.506;2023-05-29T08:32:48;15.60;1.00
3478;DHT22;37937;61.490;23.506;2023-05-29T08:35:15;15.70;1.00
3478;DHT22;37937;61.490;23.506;2023-05-29T08:37:41;16.30;1.00
3478;DHT22;37937;61.490;23.506;2023-05-29T08:40:07;16.40;1.00
3478;DHT22;37937;61.490;23.506;2023-05-29T08:42:35;15.90;1.00
3478;DHT22;37937;61.490;23.506;2023-05-29T08:45:02;16.00;1.00
3478;DHT22;37937;61.490;23.506;2023-05-29T08:47:28;16.40;1.00
3478;DHT22;37937;61.490;23.506;2023-05-29T08:49:56;16.30;1.00
3478;DHT22;37937;61.490;23.506;2023-05-29T08:52:22;16.20;1.00
3478;DHT22;37937;61.490;23.506;2023-05-29T08:54:51;16.60;1.00
3478;DHT22;37937;61.490;23.506;2023-05-29T08:57:18;16.70;1.00
3478;DHT22;37937;61.490;23.506;2023-05-29T08:59:43;16.80;1.00
3478;DHT22;37937;61.490;23.506;2023-05-29T09:02:10;16.80;1.00
3478;DHT22;37937;61.490;23.506;2023-05-29T09:04:37;16.90;1.00
3478;DHT22;37937;61.490;23.506;2023-05-29T09:07:02;17.20;1.00
3478;DHT22;37937;61.490;23.506;2023-05-29T09:09:29;16.70;1.00
3478;DHT22;37937;61.490;23.506;2023-05-29T09:11:55;16.40;1.00
3478;DHT22;37937;61.490;23.506;2023-05-29T09:14:55;16.50;1.00
3478;DHT22;37937;61.490;23.506;2023-05-29T09:17:13;17.40;1.00
3478;DHT22;37937;61.490;23.506;2023-05-29T09:19:40;16.90;1.00
3478;DHT22;37937;61.490;23.506;2023-05-29T09:22:10;16.70;1.00
3478;DHT22;37937;61.490;23.506;2023-05-29T09:24:39;16.70;1.00
3478;DHT22;37937;61.490;23.506;2023-05-29T09:27:04;16.80;1.00
3478;DHT22;37937;61.490;23.506;2023-05-29T09:29:31;17.00;1.00
3478;DHT22;37937;61.490;23.506;2023-05-29T09:31:57;16.80;1.00
3478;DHT22;37937;61.490;23.506;2023-05-29T09:34:23;16.60;1.00
3478;DHT22;37937;61.490;23.506;2023-05-29T09:36:50;17.50;1.00
3478;DHT22;37937;61.490;23.506;2023-05-29T09:39:16;17.20;1.00
3478;DHT22;37937;61.490;23.506;2023-05-29T09:41:44;17.10;1.00
3478;DHT22;37937;61.490;23.506;2023-05-29T09:44:13;16.80;1.00
3478;DHT22;37937;61.490;23.506;2023-05-29T09:46:42;16.10;1.00
3478;DHT22;37937;61.490;23.506;2023-05-29T09:49:09;16.30;1.00
3478;DHT22;37937;61.490;23.506;2023-05-29T09:51:35;16.40;1.00
3478;DHT22;37937;61.490;23.506;2023-05-29T09:54:22;16.50;1.00
3478;DHT22;37937;61.490;23.506;2023-05-29T09:56:47;16.70;1.00
3478;DHT22;37937;61.490;23.506;2023-05-29T09:59:14;17.10;1.00
3478;DHT22;37937;61.490;23.506;2023-05-29T10:01:40;16.60;1.00
3478;DHT22;37937;61.490;23.506;2023-05-29T10:04:09;16.70;1.00
3478;DHT22;37937;61.490;23.506;2023-05-29T10:06:36;16.40;1.00
3478;DHT22;37937;61.490;23.506;2023-05-29T10:09:02;16.90;1.00
3478;DHT22;37937;61.490;23.506;2023-05-29T10:11:29;17.20;1.00
3478;DHT22;37937;61.490;23.506;2023-05-29T10:13:56;17.10;1.00
3478;DHT22;37937;61.490;23.506;2023-05-29T10:16:22;16.70;1.00
3478;DHT22;37937;61.490;23.506;2023-05-29T10:18:55;16.90;1.00
3478;DHT22;37937;61.490;23.506;2023-05-29T10:21:21;16.50;1.00
3478;DHT22;37937;61.490;23.506;2023-05-29T10:23:48;16.60;1.00
3478;DHT22;37937;61.490;23.506;2023-05-29T10:26:26;16.80;1.00
3478;DHT22;37937;61.490;23.506;2023-05-29T10:29:02;16.70;1.00
3478;DHT22;37937;61.490;23.506;2023-05-29T10:31:33;16.80;1.00
3478;DHT22;37937;61.490;23.506;2023-05-29T10:34:08;16.60;1.00
3478;DHT22;37937;61.490;23.506;2023-05-29T10:36:42;16.70;1.00
3478;DHT22;37937;61.490;23.506;2023-05-29T10:39:09;16.90;1.00
3478;DHT22;37937;61.490;23.506;2023-05-29T10:41:35;17.00;1.00
3478;DHT22;37937;61.490;23.506;2023-05-29T10:49:18;16.40;1.00
3478;DHT22;37937;61.490;23.506;2023-05-29T10:51:44;15.80;1.00
3478;DHT22;37937;61.490;23.506;2023-05-29T10:54:10;15.40;1.00
3478;DHT22;37937;61.490;23.506;2023-05-29T10:56:37;15.50;1.00
3478;DHT22;37937;61.490;23.506;2023-05-29T10:59:02;15.60;1.00
3478;DHT22;37937;61.490;23.506;2023-05-29T11:01:31;15.80;1.00
3478;DHT22;37937;61.490;23.506;2023-05-29T11:06:42;15.60;1.00
3478;DHT22;37937;61.490;23.506;2023-05-29T11:14:53;16.70;1.00
3478;DHT22;37937;61.490;23.506;2023-05-29T11:20:03;16.10;1.00
3478;DHT22;37937;61.490;23.506;2023-05-29T11:25:28;16.20;1.00
3478;DHT22;37937;61.490;23.506;2023-05-29T11:27:53;16.10;1.00
3478;DHT22;37937;61.490;23.506;2023-05-29T11:30:19;15.70;1.00
3478;DHT22;37937;61.490;23.506;2023-05-29T11:32:46;15.80;1.00
3478;DHT22;37937;61.490;23.506;2023-05-29T11:35:12;16.30;1.00
3478;DHT22;37937;61.490;23.506;2023-05-29T11:37:39;16.60;1.00
3478;DHT22;37937;61.490;23.506;2023-05-29T11:40:05;16.40;1.00
3478;DHT22;37937;61.490;23.506;2023-05-29T11:42:31;16.10;1.00
3478;DHT22;37937;61.490;23.506;2023-05-29T11:45:10;16.00;1.00
3478;DHT22;37937;61.490;23.506;2023-05-29T11:50:23;16.20;1.00
3478;DHT22;37937;61.490;23.506;2023-05-29T11:52:49;16.40;1.00
3478;DHT22;37937;61.490;23.506;2023-05-29T11:55:19;16.20;1.00
3478;DHT22;37937;61.490;23.506;2023-05-29T11:57:48;16.40;1.00
3478;DHT22;37937;61.490;23.506;2023-05-29T12:00:15;16.30;1.00
3478;DHT22;37937;61.490;23.506;2023-05-29T12:02:41;15.40;1.00
3478;DHT22;37937;61.490;23.506;2023-05-29T12:05:12;15.60;1.00
3478;DHT22;37937;61.490;23.506;2023-05-29T12:07:50;16.10;1.00
3478;DHT22;37937;61.490;23.506;2023-05-29T12:10:16;15.40;1.00
3478;DHT22;37937;61.490;23.506;2023-05-29T12:12:42;15.30;1.00
3478;DHT22;37937;61.490;23.506;2023-05-29T12:15:08;15.50;1.00
3478;DHT22;37937;61.490;23.506;2023-05-29T12:17:35;15.70;1.00
3478;DHT22;37937;61.490;23.506;2023-05-29T12:20:01;15.70;1.00
3478;DHT22;37937;61.490;23.506;2023-05-29T12:22:32;15.90;1.00
3478;DHT22;37937;61.490;23.506;2023-05-29T12:25:03;15.80;1.00
3478;DHT22;37937;61.490;23.506;2023-05-29T12:27:28;15.70;1.00
3478;DHT22;37937;61.490;23.506;2023-05-29T12:30:01;16.20;1.00
3478;DHT22;37937;61.490;23.506;2023-05-29T12:32:34;16.00;1.00
3478;DHT22;37937;61.490;23.506;2023-05-29T12:34:59;16.40;1.00
3478;DHT22;37937;61.490;23.506;2023-05-29T12:37:25;16.50;1.00
3478;DHT22;37937;61.490;23.506;2023-05-29T12:40:10;16.60;1.00
3478;DHT22;37937;61.490;23.506;2023-05-29T12:42:37;16.20;1.00
3478;DHT22;37937;61.490;23.506;2023-05-29T12:45:03;16.10;1.00
3478;DHT22;37937;61.490;23.506;2023-05-29T12:47:29;15.70;1.00
3478;DHT22;37937;61.490;23.506;2023-05-29T12:49:55;15.90;1.00
3478;DHT22;37937;61.490;23.506;2023-05-29T12:52:23;16.30;1.00
3478;DHT22;37937;61.490;23.506;2023-05-29T12:54:49;16.30;1.00
3478;DHT22;37937;61.490;23.506;2023-05-29T12:57:14;16.10;1.00
3478;DHT22;37937;61.490;23.506;2023-05-29T12:59:40;15.60;1.00
3478;DHT22;37937;61.490;23.506;2023-05-29T13:02:06;15.80;1.00
3478;DHT22;37937;61.490;23.506;2023-05-29T13:04:33;15.70;1.00
3478;DHT22;37937;61.490;23.506;2023-05-29T13:06:59;15.50;1.00
3478;DHT22;37937;61.490;23.506;2023-05-29T13:09:25;15.50;1.00
3478;DHT22;37937;61.490;23.506;2023-05-29T13:11:50;15.60;1.00
3478;DHT22;37937;61.490;23.506;2023-05-29T13:14:18;15.80;1.00
3478;DHT22;37937;61.490;23.506;2023-05-29T13:16:43;16.10;1.00
3478;DHT22;37937;61.490;23.506;2023-05-29T13:19:09;15.90;1.00
3478;DHT22;37937;61.490;23.506;2023-05-29T13:21:35;16.00;1.00
3478;DHT22;37937;61.490;23.506;2023-05-29T13:24:00;15.50;1.00
3478;DHT22;37937;61.490;23.506;2023-05-29T13:26:26;15.00;1.00
3478;DHT22;37937;61.490;23.506;2023-05-29T13:28:52;15.00;1.00
3478;DHT22;37937;61.490;23.506;2023-05-29T13:31:17;14.70;1.00
3478;DHT22;37937;61.490;23.506;2023-05-29T13:33:46;15.00;1.00
3478;DHT22;37937;61.490;23.506;2023-05-29T13:36:12;14.80;1.00
3478;DHT22;37937;61.490;23.506;2023-05-29T13:38:38;14.80;1.00
3478;DHT22;37937;61.490;23.506;2023-05-29T13:41:03;14.50;1.00
3478;DHT22;37937;61.490;23.506;2023-05-29T13:43:29;14.60;1.00
3478;DHT22;37937;61.490;23.506;2023-05-29T13:45:54;14.70;1.00
3478;DHT22;37937;61.490;23.506;2023-05-29T13:48:20;14.80;1.00
3478;DHT22;37937;61.490;23.506;2023-05-29T13:50:46;15.00;1.00
3478;DHT22;37937;61.490;23.506;2023-05-29T13:53:12;14.70;1.00
3478;DHT22;37937;61.490;23.506;2023-05-29T13:55:38;14.80;1.00
3478;DHT22;37937;61.490;23.506;2023-05-29T13:58:03;14.70;1.00
3478;DHT22;37937;61.490;23.506;2023-05-29T14:00:29;14.60;1.00
3478;DHT22;37937;61.490;23.506;2023-05-29T14:02:54;14.30;1.00
3478;DHT22;37937;61.490;23.506;2023-05-29T14:05:20;13.80;1.00
3478;DHT22;37937;61.490;23.506;2023-05-29T14:07:46;14.00;1.00
3478;DHT22;37937;61.490;23.506;2023-05-29T14:10:11;14.20;1.00
3478;DHT22;37937;61.490;23.506;2023-05-29T14:12:37;14.10;1.00
3478;DHT22;37937;61.490;23.506;2023-05-29T14:15:02;14.30;1.00
3478;DHT22;37937;61.490;23.506;2023-05-29T14:17:28;14.20;1.00
3478;DHT22;37937;61.490;23.506;2023-05-29T14:19:54;14.50;1.00
3478;DHT22;37937;61.490;23.506;2023-05-29T14:22:20;14.60;1.00
3478;DHT22;37937;61.490;23.506;2023-05-29T14:24:46;14.50;1.00
3478;DHT22;37937;61.490;23.506;2023-05-29T14:27:12;14.30;1.00
3478;DHT22;37937;61.490;23.506;2023-05-29T14:29:37;14.30;1.00
3478;DHT22;37937;61.490;23.506;2023-05-29T14:32:03;14.50;1.00
3478;DHT22;37937;61.490;23.506;2023-05-29T14:34:28;14.30;1.00
3478;DHT22;37937;61.490;23.506;2023-05-29T14:36:54;14.10;1.00
3478;DHT22;37937;61.490;23.506;2023-05-29T14:39:20;14.20;1.00
3478;DHT22;37937;61.490;23.506;2023-05-29T14:41:45;13.90;1.00
3478;DHT22;37937;61.490;23.506;2023-05-29T14:44:11;13.70;1.00
3478;DHT22;37937;61.490;23.506;2023-05-29T14:46:37;13.70;1.00
3478;DHT22;37937;61.490;23.506;2023-05-29T14:49:03;13.90;1.00
3478;DHT22;37937;61.490;23.506;2023-05-29T14:51:28;13.80;1.00
3478;DHT22;37937;61.490;23.506;2023-05-29T14:53:54;13.50;1.00
3478;DHT22;37937;61.490;23.506;2023-05-29T14:56:20;13.70;1.00
3478;DHT22;37937;61.490;23.506;2023-05-29T14:58:46;13.70;1.00
3478;DHT22;37937;61.490;23.506;2023-05-29T15:01:13;13.50;1.00
3478;DHT22;37937;61.490;23.506;2023-05-29T15:03:39;13.40;1.00
3478;DHT22;37937;61.490;23.506;2023-05-29T15:06:05;13.40;1.00
3478;DHT22;37937;61.490;23.506;2023-05-29T15:08:32;13.20;1.00
3478;DHT22;37937;61.490;23.506;2023-05-29T15:11:02;13.20;1.00
3478;DHT22;37937;61.490;23.506;2023-05-29T15:13:31;12.80;1.00
3478;DHT22;37937;61.490;23.506;2023-05-29T15:15:57;12.70;1.00
3478;DHT22;37937;61.490;23.506;2023-05-29T15:18:26;12.90;1.00
3478;DHT22;37937;61.490;23.506;2023-05-29T15:20:52;12.80;1.00
3478;DHT22;37937;61.490;23.506;2023-05-29T15:23:18;12.80;1.00
3478;DHT22;37937;61.490;23.506;2023-05-29T15:25:44;12.40;1.00
3478;DHT22;37937;61.490;23.506;2023-05-29T15:28:10;12.40;1.00
3478;DHT22;37937;61.490;23.506;2023-05-29T15:30:38;12.50;1.00
3478;DHT22;37937;61.490;23.506;2023-05-29T15:33:03;12.60;1.00
3478;DHT22;37937;61.490;23.506;2023-05-29T15:35:33;12.50;1.00
3478;DHT22;37937;61.490;23.506;2023-05-29T15:37:58;12.10;1.00
3478;DHT22;37937;61.490;23.506;2023-05-29T15:40:24;12.30;1.00
3478;DHT22;37937;61.490;23.506;2023-05-29T15:42:49;12.30;1.00
3478;DHT22;37937;61.490;23.506;2023-05-29T15:45:15;12.40;1.00
3478;DHT22;37937;61.490;23.506;2023-05-29T15:47:41;12.40;1.00
3478;DHT22;37937;61.490;23.506;2023-05-29T15:50:06;12.40;1.00
3478;DHT22;37937;61.490;23.506;2023-05-29T15:52:32;12.20;1.00
3478;DHT22;37937;61.490;23.506;2023-05-29T15:54:57;12.30;1.00
3478;DHT22;37937;61.490;23.506;2023-05-29T15:57:23;12.20;1.00
3478;DHT22;37937;61.490;23.506;2023-05-29T15:59:49;12.10;1.00
3478;DHT22;37937;61.490;23.506;2023-05-29T16:02:15;12.10;1.00
3478;DHT22;37937;61.490;23.506;2023-05-29T16:04:40;12.00;1.00
3478;DHT22;37937;61.490;23.506;2023-05-29T16:07:06;12.00;1.00
3478;DHT22;37937;61.490;23.506;2023-05-29T16:09:31;11.90;1.00